sensor_id;sensor_type;location;lat;lon;timestamp;P1;durP1;ratioP1;P2;durP2;ratioP2
42338;SDS011;27993;45.392;10.918;2022-10-04T00:07:21;17.33;;;13.68;;
42338;SDS011;27993;45.392;10.918;2022-10-04T00:09:56;18.90;;;12.77;;
42338;SDS011;27993;45.392;10.918;2022-10-04T00:12:37;14.63;;;12.90;;
42338;SDS011;27993;45.392;10.918;2022-10-04T00:15:19;17.70;;;13.25;;
42338;SDS011;27993;45.392;10.918;2022-10-04T00:25:57;16.77;;;13.23;;
42338;SDS011;27993;45.392;10.918;2022-10-04T00:39:03;18.83;;;15.50;;
42338;SDS011;27993;45.392;10.918;2022-10-04T00:41:47;29.27;;;15.73;;
42338;SDS011;27993;45.392;10.918;2022-10-04T00:44:41;17.27;;;14.52;;
42338;SDS011;27993;45.392;10.918;2022-10-04T00:50:28;17.15;;;13.52;;
42338;SDS011;27993;45.392;10.918;2022-10-04T00:53:10;30.45;;;16.92;;
42338;SDS011;27993;45.392;10.918;2022-10-04T00:56:15;22.50;;;16.25;;
42338;SDS011;27993;45.392;10.918;2022-10-04T01:01:28;28.02;;;15.73;;
42338;SDS011;27993;45.392;10.918;2022-10-04T01:04:04;21.23;;;15.98;;
42338;SDS011;27993;45.392;10.918;2022-10-04T01:06:43;23.42;;;17.00;;
42338;SDS011;27993;45.392;10.918;2022-10-04T01:09:13;20.65;;;16.75;;
42338;SDS011;27993;45.392;10.918;2022-10-04T01:11:49;37.80;;;18.23;;
42338;SDS011;27993;45.392;10.918;2022-10-04T01:14:48;22.20;;;16.98;;
42338;SDS011;27993;45.392;10.918;2022-10-04T01:17:21;26.08;;;16.77;;
42338;SDS011;27993;45.392;10.918;2022-10-04T01:19:52;26.52;;;17.30;;
42338;SDS011;27993;45.392;10.918;2022-10-04T01:22:47;21.62;;;17.65;;
42338;SDS011;27993;45.392;10.918;2022-10-04T01:28:16;31.50;;;17.02;;
42338;SDS011;27993;45.392;10.918;2022-10-04T01:30:47;31.80;;;17.83;;
42338;SDS011;27993;45.392;10.918;2022-10-04T01:33:18;27.08;;;16.77;;
42338;SDS011;27993;45.392;10.918;2022-10-04T01:35:48;24.08;;;17.92;;
42338;SDS011;27993;45.392;10.918;2022-10-04T01:38:19;31.75;;;18.37;;
42338;SDS011;27993;45.392;10.918;2022-10-04T01:40:53;38.15;;;17.05;;
42338;SDS011;27993;45.392;10.918;2022-10-04T01:43:28;30.10;;;17.05;;
42338;SDS011;27993;45.392;10.918;2022-10-04T01:46:06;37.90;;;18.65;;
42338;SDS011;27993;45.392;10.918;2022-10-04T01:48:42;31.95;;;17.98;;
42338;SDS011;27993;45.392;10.918;2022-10-04T01:51:24;25.25;;;18.27;;
42338;SDS011;27993;45.392;10.918;2022-10-04T01:54:04;33.65;;;17.35;;
42338;SDS011;27993;45.392;10.918;2022-10-04T02:00:13;35.78;;;16.92;;
42338;SDS011;27993;45.392;10.918;2022-10-04T02:02:52;28.58;;;16.17;;
42338;SDS011;27993;45.392;10.918;2022-10-04T02:05:32;21.17;;;14.93;;
42338;SDS011;27993;45.392;10.918;2022-10-04T02:08:16;26.60;;;13.48;;
42338;SDS011;27993;45.392;10.918;2022-10-04T02:10:54;20.25;;;13.90;;
42338;SDS011;27993;45.392;10.918;2022-10-04T02:13:26;29.63;;;14.43;;
42338;SDS011;27993;45.392;10.918;2022-10-04T02:16:09;19.33;;;13.18;;
42338;SDS011;27993;45.392;10.918;2022-10-04T02:18:40;24.90;;;13.77;;
42338;SDS011;27993;45.392;10.918;2022-10-04T02:21:13;14.35;;;12.43;;
42338;SDS011;27993;45.392;10.918;2022-10-04T02:23:45;19.67;;;11.85;;
42338;SDS011;27993;45.392;10.918;2022-10-04T02:26:17;17.10;;;12.40;;
42338;SDS011;27993;45.392;10.918;2022-10-04T02:28:47;11.32;;;9.73;;
42338;SDS011;27993;45.392;10.918;2022-10-04T02:31:19;17.42;;;12.50;;
42338;SDS011;27993;45.392;10.918;2022-10-04T02:36:40;16.37;;;10.83;;
42338;SDS011;27993;45.392;10.918;2022-10-04T02:39:14;14.18;;;9.55;;
42338;SDS011;27993;45.392;10.918;2022-10-04T02:42:13;21.90;;;11.43;;
42338;SDS011;27993;45.392;10.918;2022-10-04T02:44:54;27.92;;;10.45;;
42338;SDS011;27993;45.392;10.918;2022-10-04T02:47:43;13.85;;;11.15;;
42338;SDS011;27993;45.392;10.918;2022-10-04T02:50:43;22.05;;;10.85;;
42338;SDS011;27993;45.392;10.918;2022-10-04T02:53:36;28.62;;;10.70;;
42338;SDS011;27993;45.392;10.918;2022-10-04T02:56:22;16.15;;;10.98;;
42338;SDS011;27993;45.392;10.918;2022-10-04T02:58:59;15.35;;;9.05;;
42338;SDS011;27993;45.392;10.918;2022-10-04T03:04:23;15.77;;;10.30;;
42338;SDS011;27993;45.392;10.918;2022-10-04T03:06:57;13.25;;;10.80;;
42338;SDS011;27993;45.392;10.918;2022-10-04T03:09:30;17.70;;;10.38;;
42338;SDS011;27993;45.392;10.918;2022-10-04T03:12:02;15.02;;;9.95;;
42338;SDS011;27993;45.392;10.918;2022-10-04T03:14:34;29.42;;;10.43;;
42338;SDS011;27993;45.392;10.918;2022-10-04T03:17:06;16.17;;;10.32;;
42338;SDS011;27993;45.392;10.918;2022-10-04T03:19:37;20.48;;;11.60;;
42338;SDS011;27993;45.392;10.918;2022-10-04T03:22:09;12.18;;;9.77;;
42338;SDS011;27993;45.392;10.918;2022-10-04T03:24:45;13.50;;;10.73;;
42338;SDS011;27993;45.392;10.918;2022-10-04T03:27:28;18.40;;;12.43;;
42338;SDS011;27993;45.392;10.918;2022-10-04T03:30:05;15.93;;;12.63;;
42338;SDS011;27993;45.392;10.918;2022-10-04T03:32:36;18.27;;;13.25;;
42338;SDS011;27993;45.392;10.918;2022-10-04T03:35:15;19.27;;;12.57;;
42338;SDS011;27993;45.392;10.918;2022-10-04T03:38:04;26.83;;;11.95;;
42338;SDS011;27993;45.392;10.918;2022-10-04T03:40:37;16.25;;;13.00;;
42338;SDS011;27993;45.392;10.918;2022-10-04T03:43:14;24.95;;;12.52;;
42338;SDS011;27993;45.392;10.918;2022-10-04T03:45:45;17.90;;;12.27;;
42338;SDS011;27993;45.392;10.918;2022-10-04T03:48:16;13.45;;;11.98;;
42338;SDS011;27993;45.392;10.918;2022-10-04T03:50:54;16.23;;;12.37;;
42338;SDS011;27993;45.392;10.918;2022-10-04T03:53:28;17.20;;;12.23;;
42338;SDS011;27993;45.392;10.918;2022-10-04T03:56:10;17.45;;;12.43;;
42338;SDS011;27993;45.392;10.918;2022-10-04T03:59:05;20.05;;;13.40;;
42338;SDS011;27993;45.392;10.918;2022-10-04T04:01:55;15.32;;;11.90;;
42338;SDS011;27993;45.392;10.918;2022-10-04T04:05:13;18.90;;;13.45;;
42338;SDS011;27993;45.392;10.918;2022-10-04T04:08:00;20.92;;;13.43;;
42338;SDS011;27993;45.392;10.918;2022-10-04T04:10:45;15.80;;;12.88;;
42338;SDS011;27993;45.392;10.918;2022-10-04T04:15:55;21.55;;;12.35;;
42338;SDS011;27993;45.392;10.918;2022-10-04T04:18:32;19.73;;;12.07;;
42338;SDS011;27993;45.392;10.918;2022-10-04T04:21:08;23.75;;;13.23;;
42338;SDS011;27993;45.392;10.918;2022-10-04T04:23:47;20.33;;;13.25;;
42338;SDS011;27993;45.392;10.918;2022-10-04T04:29:21;16.52;;;12.10;;
42338;SDS011;27993;45.392;10.918;2022-10-04T04:32:10;17.45;;;12.18;;
42338;SDS011;27993;45.392;10.918;2022-10-04T04:34:56;21.58;;;13.18;;
42338;SDS011;27993;45.392;10.918;2022-10-04T04:37:37;20.02;;;12.37;;
42338;SDS011;27993;45.392;10.918;2022-10-04T04:40:21;20.83;;;13.50;;
42338;SDS011;27993;45.392;10.918;2022-10-04T04:42:55;22.58;;;13.60;;
42338;SDS011;27993;45.392;10.918;2022-10-04T04:45:29;18.23;;;13.10;;
42338;SDS011;27993;45.392;10.918;2022-10-04T04:48:01;23.33;;;13.55;;
42338;SDS011;27993;45.392;10.918;2022-10-04T04:50:36;34.97;;;12.70;;
42338;SDS011;27993;45.392;10.918;2022-10-04T04:53:13;15.50;;;12.18;;
42338;SDS011;27993;45.392;10.918;2022-10-04T04:55:53;19.50;;;11.48;;
42338;SDS011;27993;45.392;10.918;2022-10-04T04:58:28;16.50;;;11.20;;
42338;SDS011;27993;45.392;10.918;2022-10-04T05:01:03;17.67;;;11.07;;
42338;SDS011;27993;45.392;10.918;2022-10-04T05:03:38;20.23;;;12.60;;
42338;SDS011;27993;45.392;10.918;2022-10-04T05:06:24;24.42;;;12.20;;
42338;SDS011;27993;45.392;10.918;2022-10-04T05:08:56;20.05;;;11.43;;
42338;SDS011;27993;45.392;10.918;2022-10-04T05:11:27;17.12;;;11.73;;
42338;SDS011;27993;45.392;10.918;2022-10-04T05:14:02;21.10;;;11.55;;
42338;SDS011;27993;45.392;10.918;2022-10-04T05:16:47;14.80;;;12.30;;
42338;SDS011;27993;45.392;10.918;2022-10-04T05:19:25;24.37;;;11.68;;
42338;SDS011;27993;45.392;10.918;2022-10-04T05:22:10;22.83;;;11.98;;
42338;SDS011;27993;45.392;10.918;2022-10-04T05:24:43;22.02;;;10.77;;
42338;SDS011;27993;45.392;10.918;2022-10-04T05:27:20;14.48;;;10.63;;
42338;SDS011;27993;45.392;10.918;2022-10-04T05:35:17;13.50;;;10.90;;
42338;SDS011;27993;45.392;10.918;2022-10-04T05:40:42;18.15;;;11.07;;
42338;SDS011;27993;45.392;10.918;2022-10-04T05:43:35;21.92;;;11.02;;
42338;SDS011;27993;45.392;10.918;2022-10-04T05:46:33;16.50;;;10.95;;
42338;SDS011;27993;45.392;10.918;2022-10-04T05:49:10;15.27;;;10.82;;
42338;SDS011;27993;45.392;10.918;2022-10-04T05:51:49;15.05;;;9.85;;
42338;SDS011;27993;45.392;10.918;2022-10-04T05:54:30;20.73;;;10.82;;
42338;SDS011;27993;45.392;10.918;2022-10-04T05:57:16;19.65;;;10.38;;
42338;SDS011;27993;45.392;10.918;2022-10-04T05:59:53;18.15;;;10.07;;
42338;SDS011;27993;45.392;10.918;2022-10-04T06:14:09;12.98;;;6.90;;
42338;SDS011;27993;45.392;10.918;2022-10-04T06:22:28;15.75;;;7.75;;
42338;SDS011;27993;45.392;10.918;2022-10-04T06:25:06;9.13;;;7.40;;
42338;SDS011;27993;45.392;10.918;2022-10-04T06:27:54;12.93;;;7.53;;
42338;SDS011;27993;45.392;10.918;2022-10-04T06:30:26;10.75;;;7.30;;
42338;SDS011;27993;45.392;10.918;2022-10-04T06:35:59;15.63;;;7.35;;
42338;SDS011;27993;45.392;10.918;2022-10-04T06:44:18;11.68;;;7.97;;
42338;SDS011;27993;45.392;10.918;2022-10-04T06:52:22;16.37;;;9.27;;
42338;SDS011;27993;45.392;10.918;2022-10-04T07:01:01;13.20;;;10.77;;
42338;SDS011;27993;45.392;10.918;2022-10-04T07:06:39;16.00;;;11.77;;
42338;SDS011;27993;45.392;10.918;2022-10-04T07:09:18;14.23;;;11.15;;
42338;SDS011;27993;45.392;10.918;2022-10-04T07:14:34;16.95;;;10.95;;
42338;SDS011;27993;45.392;10.918;2022-10-04T07:17:09;20.55;;;11.35;;
42338;SDS011;27993;45.392;10.918;2022-10-04T07:22:28;16.62;;;12.93;;
42338;SDS011;27993;45.392;10.918;2022-10-04T07:25:14;27.52;;;13.02;;
42338;SDS011;27993;45.392;10.918;2022-10-04T07:31:02;19.23;;;13.00;;
42338;SDS011;27993;45.392;10.918;2022-10-04T07:33:40;15.82;;;13.30;;
42338;SDS011;27993;45.392;10.918;2022-10-04T07:36:16;18.15;;;15.02;;
42338;SDS011;27993;45.392;10.918;2022-10-04T07:38:59;15.68;;;13.38;;
42338;SDS011;27993;45.392;10.918;2022-10-04T07:41:38;16.37;;;14.40;;
42338;SDS011;27993;45.392;10.918;2022-10-04T07:47:18;22.17;;;17.50;;
42338;SDS011;27993;45.392;10.918;2022-10-04T07:49:50;25.85;;;17.10;;
42338;SDS011;27993;45.392;10.918;2022-10-04T07:55:56;22.85;;;18.37;;
42338;SDS011;27993;45.392;10.918;2022-10-04T08:11:06;23.08;;;18.05;;
42338;SDS011;27993;45.392;10.918;2022-10-04T08:14:26;24.55;;;18.00;;
42338;SDS011;27993;45.392;10.918;2022-10-04T08:17:08;26.35;;;18.10;;
42338;SDS011;27993;45.392;10.918;2022-10-04T08:20:06;19.62;;;17.40;;
42338;SDS011;27993;45.392;10.918;2022-10-04T08:29:22;19.05;;;14.13;;
42338;SDS011;27993;45.392;10.918;2022-10-04T08:52:28;15.55;;;11.27;;
42338;SDS011;27993;45.392;10.918;2022-10-04T09:18:17;11.60;;;9.45;;
42338;SDS011;27993;45.392;10.918;2022-10-04T09:21:08;10.15;;;8.48;;
42338;SDS011;27993;45.392;10.918;2022-10-04T09:23:53;11.32;;;9.52;;
42338;SDS011;27993;45.392;10.918;2022-10-04T09:26:45;14.70;;;9.07;;
42338;SDS011;27993;45.392;10.918;2022-10-04T09:29:43;12.10;;;10.35;;
42338;SDS011;27993;45.392;10.918;2022-10-04T09:32:41;12.43;;;9.77;;
42338;SDS011;27993;45.392;10.918;2022-10-04T09:47:31;16.83;;;11.40;;
42338;SDS011;27993;45.392;10.918;2022-10-04T10:19:12;10.27;;;8.07;;
42338;SDS011;27993;45.392;10.918;2022-10-04T10:30:36;7.57;;;6.78;;
42338;SDS011;27993;45.392;10.918;2022-10-04T10:41:36;8.82;;;7.40;;
42338;SDS011;27993;45.392;10.918;2022-10-04T10:47:15;9.85;;;8.07;;
42338;SDS011;27993;45.392;10.918;2022-10-04T11:15:39;14.45;;;5.82;;
42338;SDS011;27993;45.392;10.918;2022-10-04T11:24:33;7.30;;;6.40;;
42338;SDS011;27993;45.392;10.918;2022-10-04T11:31:16;8.25;;;6.30;;
42338;SDS011;27993;45.392;10.918;2022-10-04T11:33:39;8.30;;;7.12;;
42338;SDS011;27993;45.392;10.918;2022-10-04T11:36:46;8.75;;;5.65;;
42338;SDS011;27993;45.392;10.918;2022-10-04T11:48:16;9.52;;;6.50;;
42338;SDS011;27993;45.392;10.918;2022-10-04T11:57:00;13.38;;;7.32;;
42338;SDS011;27993;45.392;10.918;2022-10-04T12:00:03;7.00;;;4.95;;
42338;SDS011;27993;45.392;10.918;2022-10-04T12:05:51;9.82;;;7.15;;
42338;SDS011;27993;45.392;10.918;2022-10-04T12:36:08;12.90;;;7.60;;
42338;SDS011;27993;45.392;10.918;2022-10-04T12:47:01;11.07;;;7.95;;
42338;SDS011;27993;45.392;10.918;2022-10-04T12:56:05;12.52;;;6.93;;
42338;SDS011;27993;45.392;10.918;2022-10-04T13:05:34;17.55;;;8.73;;
42338;SDS011;27993;45.392;10.918;2022-10-04T13:08:07;9.98;;;8.60;;
42338;SDS011;27993;45.392;10.918;2022-10-04T13:22:29;10.23;;;8.98;;
42338;SDS011;27993;45.392;10.918;2022-10-04T13:25:22;13.17;;;10.77;;
42338;SDS011;27993;45.392;10.918;2022-10-04T13:34:25;14.40;;;9.85;;
42338;SDS011;27993;45.392;10.918;2022-10-04T13:43:12;13.27;;;9.80;;
42338;SDS011;27993;45.392;10.918;2022-10-04T13:49:12;13.90;;;9.52;;
42338;SDS011;27993;45.392;10.918;2022-10-04T13:51:58;12.20;;;9.70;;
42338;SDS011;27993;45.392;10.918;2022-10-04T13:58:01;13.30;;;10.35;;
42338;SDS011;27993;45.392;10.918;2022-10-04T14:12:04;13.48;;;10.82;;
42338;SDS011;27993;45.392;10.918;2022-10-04T14:14:43;14.15;;;9.57;;
42338;SDS011;27993;45.392;10.918;2022-10-04T14:23:52;15.07;;;10.55;;
42338;SDS011;27993;45.392;10.918;2022-10-04T14:26:41;11.52;;;9.30;;
42338;SDS011;27993;45.392;10.918;2022-10-04T14:34:46;12.93;;;10.43;;
42338;SDS011;27993;45.392;10.918;2022-10-04T14:52:14;11.90;;;10.68;;
42338;SDS011;27993;45.392;10.918;2022-10-04T14:54:51;11.10;;;10.00;;
42338;SDS011;27993;45.392;10.918;2022-10-04T15:00:14;15.20;;;11.27;;
42338;SDS011;27993;45.392;10.918;2022-10-04T15:05:32;14.38;;;10.55;;
42338;SDS011;27993;45.392;10.918;2022-10-04T15:16:30;12.10;;;9.70;;
42338;SDS011;27993;45.392;10.918;2022-10-04T15:19:23;11.93;;;10.82;;
42338;SDS011;27993;45.392;10.918;2022-10-04T15:22:18;18.00;;;10.57;;
42338;SDS011;27993;45.392;10.918;2022-10-04T15:24:53;10.48;;;9.05;;
42338;SDS011;27993;45.392;10.918;2022-10-04T15:30:20;17.52;;;10.93;;
42338;SDS011;27993;45.392;10.918;2022-10-04T15:41:02;14.63;;;11.45;;
42338;SDS011;27993;45.392;10.918;2022-10-04T15:47:21;13.57;;;10.60;;
42338;SDS011;27993;45.392;10.918;2022-10-04T16:04:19;15.90;;;11.85;;
42338;SDS011;27993;45.392;10.918;2022-10-04T16:07:22;20.33;;;10.63;;
42338;SDS011;27993;45.392;10.918;2022-10-04T16:15:43;16.95;;;10.85;;
42338;SDS011;27993;45.392;10.918;2022-10-04T16:21:33;11.95;;;10.65;;
42338;SDS011;27993;45.392;10.918;2022-10-04T16:32:16;12.70;;;10.15;;
42338;SDS011;27993;45.392;10.918;2022-10-04T16:35:00;18.45;;;10.50;;
42338;SDS011;27993;45.392;10.918;2022-10-04T16:37:38;17.75;;;10.02;;
42338;SDS011;27993;45.392;10.918;2022-10-04T16:40:32;14.02;;;9.65;;
42338;SDS011;27993;45.392;10.918;2022-10-04T16:43:09;19.62;;;10.30;;
42338;SDS011;27993;45.392;10.918;2022-10-04T16:48:46;14.02;;;9.75;;
42338;SDS011;27993;45.392;10.918;2022-10-04T17:06:55;16.52;;;11.43;;
42338;SDS011;27993;45.392;10.918;2022-10-04T17:09:48;22.80;;;11.20;;
42338;SDS011;27993;45.392;10.918;2022-10-04T17:12:42;21.60;;;11.27;;
42338;SDS011;27993;45.392;10.918;2022-10-04T17:26:12;38.10;;;9.75;;
42338;SDS011;27993;45.392;10.918;2022-10-04T17:28:56;17.42;;;10.73;;
42338;SDS011;27993;45.392;10.918;2022-10-04T17:31:39;21.87;;;11.48;;
42338;SDS011;27993;45.392;10.918;2022-10-04T17:42:45;16.27;;;11.38;;
42338;SDS011;27993;45.392;10.918;2022-10-04T17:45:42;17.80;;;11.95;;
42338;SDS011;27993;45.392;10.918;2022-10-04T17:48:43;12.85;;;10.63;;
42338;SDS011;27993;45.392;10.918;2022-10-04T17:51:43;13.65;;;10.65;;
42338;SDS011;27993;45.392;10.918;2022-10-04T17:57:27;13.27;;;9.43;;
42338;SDS011;27993;45.392;10.918;2022-10-04T18:00:06;14.63;;;9.80;;
42338;SDS011;27993;45.392;10.918;2022-10-04T18:05:20;15.65;;;9.60;;
42338;SDS011;27993;45.392;10.918;2022-10-04T18:07:56;13.55;;;9.00;;
42338;SDS011;27993;45.392;10.918;2022-10-04T18:13:48;11.32;;;8.57;;
42338;SDS011;27993;45.392;10.918;2022-10-04T18:19:06;18.30;;;8.98;;
42338;SDS011;27993;45.392;10.918;2022-10-04T18:22:16;13.05;;;10.50;;
42338;SDS011;27993;45.392;10.918;2022-10-04T18:24:48;15.63;;;10.32;;
42338;SDS011;27993;45.392;10.918;2022-10-04T18:27:47;18.08;;;9.93;;
42338;SDS011;27993;45.392;10.918;2022-10-04T18:30:28;27.50;;;9.73;;
42338;SDS011;27993;45.392;10.918;2022-10-04T18:32:59;20.15;;;10.43;;
42338;SDS011;27993;45.392;10.918;2022-10-04T18:35:32;17.12;;;10.02;;
42338;SDS011;27993;45.392;10.918;2022-10-04T18:40:34;13.62;;;9.32;;
42338;SDS011;27993;45.392;10.918;2022-10-04T18:48:38;12.73;;;8.95;;
42338;SDS011;27993;45.392;10.918;2022-10-04T18:51:20;12.57;;;8.95;;
42338;SDS011;27993;45.392;10.918;2022-10-04T18:53:54;15.60;;;9.43;;
42338;SDS011;27993;45.392;10.918;2022-10-04T18:56:38;15.93;;;9.70;;
42338;SDS011;27993;45.392;10.918;2022-10-04T18:59:35;17.27;;;9.65;;
42338;SDS011;27993;45.392;10.918;2022-10-04T19:02:47;13.38;;;8.98;;
42338;SDS011;27993;45.392;10.918;2022-10-04T19:05:42;18.73;;;9.43;;
42338;SDS011;27993;45.392;10.918;2022-10-04T19:08:35;14.80;;;10.32;;
42338;SDS011;27993;45.392;10.918;2022-10-04T19:11:18;13.65;;;9.52;;
42338;SDS011;27993;45.392;10.918;2022-10-04T19:19:39;15.05;;;8.73;;
42338;SDS011;27993;45.392;10.918;2022-10-04T19:25:04;13.20;;;9.65;;
42338;SDS011;27993;45.392;10.918;2022-10-04T19:27:56;22.00;;;10.73;;
42338;SDS011;27993;45.392;10.918;2022-10-04T19:30:46;14.73;;;9.77;;
42338;SDS011;27993;45.392;10.918;2022-10-04T19:38:58;23.60;;;10.70;;
42338;SDS011;27993;45.392;10.918;2022-10-04T19:41:53;19.40;;;11.60;;
42338;SDS011;27993;45.392;10.918;2022-10-04T19:50:23;16.02;;;10.75;;
42338;SDS011;27993;45.392;10.918;2022-10-04T19:53:05;18.48;;;11.20;;
42338;SDS011;27993;45.392;10.918;2022-10-04T19:55:59;24.85;;;10.70;;
42338;SDS011;27993;45.392;10.918;2022-10-04T19:58:43;13.30;;;11.00;;
42338;SDS011;27993;45.392;10.918;2022-10-04T20:01:33;14.27;;;10.90;;
42338;SDS011;27993;45.392;10.918;2022-10-04T20:04:15;14.80;;;11.82;;
42338;SDS011;27993;45.392;10.918;2022-10-04T20:12:26;21.30;;;11.32;;
42338;SDS011;27993;45.392;10.918;2022-10-04T20:17:50;17.73;;;12.75;;
42338;SDS011;27993;45.392;10.918;2022-10-04T20:23:10;19.98;;;13.27;;
42338;SDS011;27993;45.392;10.918;2022-10-04T20:26:08;17.12;;;11.65;;
42338;SDS011;27993;45.392;10.918;2022-10-04T20:32:07;13.85;;;10.55;;
42338;SDS011;27993;45.392;10.918;2022-10-04T20:37:10;13.05;;;9.95;;
42338;SDS011;27993;45.392;10.918;2022-10-04T20:47:35;20.02;;;11.30;;
42338;SDS011;27993;45.392;10.918;2022-10-04T20:50:24;18.90;;;12.30;;
42338;SDS011;27993;45.392;10.918;2022-10-04T20:53:03;24.50;;;12.43;;
42338;SDS011;27993;45.392;10.918;2022-10-04T20:55:41;20.88;;;12.98;;
42338;SDS011;27993;45.392;10.918;2022-10-04T21:00:51;14.23;;;11.73;;
42338;SDS011;27993;45.392;10.918;2022-10-04T21:03:23;30.70;;;12.68;;
42338;SDS011;27993;45.392;10.918;2022-10-04T21:05:57;18.67;;;13.38;;
42338;SDS011;27993;45.392;10.918;2022-10-04T21:08:46;21.58;;;12.32;;
42338;SDS011;27993;45.392;10.918;2022-10-04T21:11:20;16.55;;;12.23;;
42338;SDS011;27993;45.392;10.918;2022-10-04T21:13:51;15.80;;;12.25;;
42338;SDS011;27993;45.392;10.918;2022-10-04T21:16:33;20.85;;;12.90;;
42338;SDS011;27993;45.392;10.918;2022-10-04T21:22:02;19.65;;;11.75;;
42338;SDS011;27993;45.392;10.918;2022-10-04T21:25:00;14.45;;;11.02;;
42338;SDS011;27993;45.392;10.918;2022-10-04T21:27:33;19.25;;;13.65;;
42338;SDS011;27993;45.392;10.918;2022-10-04T21:30:12;19.52;;;13.48;;
42338;SDS011;27993;45.392;10.918;2022-10-04T21:32:44;17.85;;;13.10;;
42338;SDS011;27993;45.392;10.918;2022-10-04T21:35:15;17.42;;;12.93;;
42338;SDS011;27993;45.392;10.918;2022-10-04T21:37:46;15.80;;;12.70;;
42338;SDS011;27993;45.392;10.918;2022-10-04T21:40:16;21.02;;;13.90;;
42338;SDS011;27993;45.392;10.918;2022-10-04T21:42:47;14.27;;;12.15;;
42338;SDS011;27993;45.392;10.918;2022-10-04T21:45:17;17.55;;;13.40;;
42338;SDS011;27993;45.392;10.918;2022-10-04T21:47:48;19.02;;;13.77;;
42338;SDS011;27993;45.392;10.918;2022-10-04T21:50:19;18.25;;;13.15;;
42338;SDS011;27993;45.392;10.918;2022-10-04T21:52:49;29.30;;;13.62;;
42338;SDS011;27993;45.392;10.918;2022-10-04T21:55:20;17.00;;;12.77;;
42338;SDS011;27993;45.392;10.918;2022-10-04T21:57:50;19.35;;;13.00;;
42338;SDS011;27993;45.392;10.918;2022-10-04T22:00:21;22.70;;;11.88;;
42338;SDS011;27993;45.392;10.918;2022-10-04T22:02:52;21.80;;;13.20;;
42338;SDS011;27993;45.392;10.918;2022-10-04T22:05:22;22.50;;;12.77;;
42338;SDS011;27993;45.392;10.918;2022-10-04T22:07:53;26.37;;;13.30;;
42338;SDS011;27993;45.392;10.918;2022-10-04T22:10:23;15.95;;;12.63;;
42338;SDS011;27993;45.392;10.918;2022-10-04T22:12:54;20.62;;;13.73;;
42338;SDS011;27993;45.392;10.918;2022-10-04T22:15:26;20.40;;;14.60;;
42338;SDS011;27993;45.392;10.918;2022-10-04T22:17:57;16.83;;;14.50;;
42338;SDS011;27993;45.392;10.918;2022-10-04T22:20:28;19.60;;;14.02;;
42338;SDS011;27993;45.392;10.918;2022-10-04T22:22:59;20.35;;;15.27;;
42338;SDS011;27993;45.392;10.918;2022-10-04T22:25:30;28.40;;;14.73;;
42338;SDS011;27993;45.392;10.918;2022-10-04T22:28:01;18.30;;;15.43;;
42338;SDS011;27993;45.392;10.918;2022-10-04T22:30:50;18.73;;;14.57;;
42338;SDS011;27993;45.392;10.918;2022-10-04T22:41:32;18.02;;;15.73;;
42338;SDS011;27993;45.392;10.918;2022-10-04T22:44:17;22.20;;;17.50;;
42338;SDS011;27993;45.392;10.918;2022-10-04T22:46:55;33.25;;;20.48;;
42338;SDS011;27993;45.392;10.918;2022-10-04T22:49:31;35.35;;;19.80;;
42338;SDS011;27993;45.392;10.918;2022-10-04T22:55:16;28.42;;;18.90;;
42338;SDS011;27993;45.392;10.918;2022-10-04T22:57:47;26.58;;;19.20;;
42338;SDS011;27993;45.392;10.918;2022-10-04T23:00:18;44.38;;;21.58;;
42338;SDS011;27993;45.392;10.918;2022-10-04T23:02:49;32.72;;;20.58;;
42338;SDS011;27993;45.392;10.918;2022-10-04T23:05:19;25.35;;;19.27;;
42338;SDS011;27993;45.392;10.918;2022-10-04T23:07:50;37.08;;;19.70;;
42338;SDS011;27993;45.392;10.918;2022-10-04T23:10:21;27.98;;;18.92;;
42338;SDS011;27993;45.392;10.918;2022-10-04T23:12:51;26.70;;;19.35;;
42338;SDS011;27993;45.392;10.918;2022-10-04T23:15:22;33.47;;;22.62;;
42338;SDS011;27993;45.392;10.918;2022-10-04T23:17:53;40.30;;;19.77;;
42338;SDS011;27993;45.392;10.918;2022-10-04T23:20:26;40.10;;;20.92;;
42338;SDS011;27993;45.392;10.918;2022-10-04T23:22:58;30.67;;;20.85;;
42338;SDS011;27993;45.392;10.918;2022-10-04T23:25:29;33.03;;;19.83;;
42338;SDS011;27993;45.392;10.918;2022-10-04T23:28:00;33.13;;;18.30;;
42338;SDS011;27993;45.392;10.918;2022-10-04T23:30:40;30.60;;;19.85;;
42338;SDS011;27993;45.392;10.918;2022-10-04T23:33:18;34.08;;;20.52;;
42338;SDS011;27993;45.392;10.918;2022-10-04T23:35:51;25.73;;;18.15;;
42338;SDS011;27993;45.392;10.918;2022-10-04T23:38:23;31.25;;;18.65;;
42338;SDS011;27993;45.392;10.918;2022-10-04T23:40:54;31.40;;;20.40;;
42338;SDS011;27993;45.392;10.918;2022-10-04T23:43:24;29.90;;;19.00;;
42338;SDS011;27993;45.392;10.918;2022-10-04T23:46:00;34.38;;;19.25;;
42338;SDS011;27993;45.392;10.918;2022-10-04T23:48:37;25.88;;;18.48;;
42338;SDS011;27993;45.392;10.918;2022-10-04T23:51:09;28.90;;;18.50;;
42338;SDS011;27993;45.392;10.918;2022-10-04T23:53:43;24.60;;;18.52;;
42338;SDS011;27993;45.392;10.918;2022-10-04T23:56:17;30.70;;;19.05;;
42338;SDS011;27993;45.392;10.918;2022-10-04T23:58:53;23.67;;;17.87;;
